WAT3465 EDNY-EDDC
Flight info
| Callsign | WAT3465 |
|---|---|
| Flight time | 0h 48m |
| Altitude | 31000 |
| Route | ALAGO1E ALAGO Z1 SUDEN Z79 GUPIN N869 ANELA Z715 ABKIS |
| Aircraft | A320/M-SDE3FGHIRWY/LB1 |
Departure
| Time | 2026-04-28 18:44 |
|---|---|
| Airport | Bodensee Airport Friedrichshafen (EDNY) |
Arrival
| Time | 2026-04-28 19:32 |
|---|---|
| Airport | Dresden Airport (EDDC) |
| Time | Latitude | Longitude | Altitude | Speed | Heading |
|---|---|---|---|---|---|
| 2026-04-28 18:07 | 47.67337 | 9.52316 | 1369 ft | 0 kts | 193° |
| 2026-04-28 18:36 | 47.67336 | 9.52311 | 1305 ft | 0 kts | 230° |
| 2026-04-28 18:37 | 47.67339 | 9.52287 | 1340 ft | 5 kts | 286° |
| 2026-04-28 18:37 | 47.67353 | 9.52210 | 1367 ft | 10 kts | 269° |
| 2026-04-28 18:37 | 47.67326 | 9.52122 | 1367 ft | 8 kts | 239° |
| 2026-04-28 18:37 | 47.67298 | 9.52052 | 1367 ft | 7 kts | 240° |
| 2026-04-28 18:38 | 47.67267 | 9.51972 | 1367 ft | 12 kts | 240° |
| 2026-04-28 18:38 | 47.67220 | 9.51850 | 1365 ft | 15 kts | 240° |
| 2026-04-28 18:38 | 47.67161 | 9.51696 | 1363 ft | 19 kts | 240° |
| 2026-04-28 18:38 | 47.67090 | 9.51515 | 1361 ft | 22 kts | 240° |
| 2026-04-28 18:39 | 47.67028 | 9.51355 | 1360 ft | 12 kts | 240° |
| 2026-04-28 18:39 | 47.66983 | 9.51240 | 1358 ft | 14 kts | 239° |
| 2026-04-28 18:39 | 47.66941 | 9.51129 | 1357 ft | 12 kts | 241° |
| 2026-04-28 18:39 | 47.66898 | 9.51016 | 1355 ft | 13 kts | 239° |
| 2026-04-28 18:40 | 47.66847 | 9.50887 | 1352 ft | 16 kts | 241° |
| 2026-04-28 18:40 | 47.66793 | 9.50776 | 1351 ft | 13 kts | 219° |
| 2026-04-28 18:40 | 47.66726 | 9.50715 | 1352 ft | 10 kts | 209° |
| 2026-04-28 18:40 | 47.66664 | 9.50636 | 1351 ft | 13 kts | 236° |
| 2026-04-28 18:41 | 47.66615 | 9.50509 | 1349 ft | 15 kts | 240° |
| 2026-04-28 18:41 | 47.66557 | 9.50359 | 1347 ft | 18 kts | 240° |
| 2026-04-28 18:41 | 47.66511 | 9.50243 | 1344 ft | 8 kts | 239° |
| 2026-04-28 18:41 | 47.66481 | 9.50160 | 1343 ft | 11 kts | 244° |
| 2026-04-28 18:42 | 47.66476 | 9.50059 | 1343 ft | 9 kts | 285° |
| 2026-04-28 18:42 | 47.66507 | 9.49971 | 1343 ft | 11 kts | 302° |
| 2026-04-28 18:42 | 47.66549 | 9.49872 | 1344 ft | 10 kts | 304° |
| 2026-04-28 18:42 | 47.66610 | 9.49824 | 1343 ft | 8 kts | 13° |
| 2026-04-28 18:43 | 47.66643 | 9.49889 | 1343 ft | 8 kts | 60° |
| 2026-04-28 18:43 | 47.66727 | 9.50104 | 1351 ft | 57 kts | 60° |
| 2026-04-28 18:43 | 47.67047 | 9.50929 | 1353 ft | 126 kts | 60° |
| 2026-04-28 18:43 | 47.67564 | 9.52261 | 1595 ft | 158 kts | 59° |
| 2026-04-28 18:44 | 47.68110 | 9.53704 | 2350 ft | 162 kts | 59° |
| 2026-04-28 18:44 | 47.69331 | 9.56866 | 3214 ft | 196 kts | 60° |
| 2026-04-28 18:44 | 47.70055 | 9.58687 | 3672 ft | 210 kts | 56° |
| 2026-04-28 18:45 | 47.71177 | 9.60062 | 3962 ft | 215 kts | 18° |
| 2026-04-28 18:45 | 47.72643 | 9.59953 | 3964 ft | 218 kts | 335° |
| 2026-04-28 18:45 | 47.73725 | 9.58360 | 3888 ft | 232 kts | 304° |
| 2026-04-28 18:45 | 47.74612 | 9.56214 | 4209 ft | 256 kts | 304° |
| 2026-04-28 18:46 | 47.75569 | 9.54041 | 5443 ft | 240 kts | 306° |
| 2026-04-28 18:46 | 47.76554 | 9.52124 | 6561 ft | 230 kts | 309° |
| 2026-04-28 18:46 | 47.77568 | 9.50334 | 7379 ft | 229 kts | 310° |
| 2026-04-28 18:46 | 47.78636 | 9.48525 | 8126 ft | 232 kts | 311° |
| 2026-04-28 18:47 | 47.79880 | 9.47041 | 8887 ft | 234 kts | 332° |
| 2026-04-28 18:47 | 47.81450 | 9.46270 | 9450 ft | 250 kts | 350° |
| 2026-04-28 18:47 | 47.83279 | 9.46183 | 9780 ft | 275 kts | 359° |
| 2026-04-28 18:47 | 47.85258 | 9.46203 | 10040 ft | 293 kts | 359° |
| 2026-04-28 18:48 | 47.87402 | 9.46222 | 10081 ft | 317 kts | 359° |
| 2026-04-28 18:48 | 47.89667 | 9.46236 | 10077 ft | 341 kts | 359° |
| 2026-04-28 18:48 | 47.92123 | 9.46243 | 10248 ft | 363 kts | 359° |
| 2026-04-28 18:48 | 47.94692 | 9.46241 | 10752 ft | 373 kts | 359° |
| 2026-04-28 18:49 | 47.97294 | 9.46236 | 11425 ft | 377 kts | 358° |
| 2026-04-28 18:49 | 47.98185 | 9.46234 | 11659 ft | 378 kts | 358° |
| 2026-04-28 18:49 | 48.02464 | 9.46225 | 13372 ft | 367 kts | 358° |
| 2026-04-28 18:49 | 48.05028 | 9.46222 | 14118 ft | 369 kts | 358° |
| 2026-04-28 18:50 | 48.07605 | 9.46219 | 14767 ft | 372 kts | 358° |
| 2026-04-28 18:50 | 48.10206 | 9.46210 | 15416 ft | 375 kts | 357° |
| 2026-04-28 18:50 | 48.12806 | 9.46199 | 16051 ft | 378 kts | 357° |
| 2026-04-28 18:50 | 48.15463 | 9.46191 | 16691 ft | 381 kts | 357° |
| 2026-04-28 18:51 | 48.18088 | 9.46188 | 17309 ft | 384 kts | 357° |
| 2026-04-28 18:51 | 48.20817 | 9.46191 | 17958 ft | 386 kts | 357° |
| 2026-04-28 18:51 | 48.23500 | 9.46194 | 18568 ft | 389 kts | 357° |
| 2026-04-28 18:51 | 48.26223 | 9.46198 | 19093 ft | 393 kts | 356° |
| 2026-04-28 18:52 | 48.28966 | 9.46201 | 19636 ft | 396 kts | 356° |
| 2026-04-28 18:52 | 48.31733 | 9.46202 | 20168 ft | 399 kts | 356° |
| 2026-04-28 18:52 | 48.34485 | 9.46201 | 20674 ft | 402 kts | 356° |
| 2026-04-28 18:52 | 48.37295 | 9.46200 | 21174 ft | 405 kts | 356° |
| 2026-04-28 18:53 | 48.40127 | 9.46202 | 21675 ft | 408 kts | 356° |
| 2026-04-28 18:53 | 48.42974 | 9.46207 | 22143 ft | 411 kts | 356° |
| 2026-04-28 18:53 | 48.45852 | 9.46211 | 22617 ft | 414 kts | 356° |
| 2026-04-28 18:53 | 48.48748 | 9.46216 | 23077 ft | 418 kts | 356° |
| 2026-04-28 18:54 | 48.51668 | 9.46630 | 23509 ft | 426 kts | 6° |
| 2026-04-28 18:54 | 48.54557 | 9.47814 | 23891 ft | 435 kts | 16° |
| 2026-04-28 18:54 | 48.57318 | 9.49745 | 24243 ft | 442 kts | 24° |
| 2026-04-28 18:54 | 48.60033 | 9.51942 | 24610 ft | 444 kts | 24° |
| 2026-04-28 18:55 | 48.62764 | 9.54140 | 24979 ft | 445 kts | 24° |
| 2026-04-28 18:55 | 48.64577 | 9.55596 | 25213 ft | 447 kts | 24° |
| 2026-04-28 18:55 | 48.68258 | 9.58560 | 25698 ft | 449 kts | 24° |
| 2026-04-28 18:55 | 48.71025 | 9.60789 | 26046 ft | 451 kts | 24° |
| 2026-04-28 18:56 | 48.73803 | 9.63030 | 26387 ft | 453 kts | 24° |
| 2026-04-28 18:56 | 48.76590 | 9.65288 | 26723 ft | 455 kts | 24° |
| 2026-04-28 18:56 | 48.79351 | 9.67532 | 27041 ft | 457 kts | 24° |
| 2026-04-28 18:56 | 48.82159 | 9.69819 | 27372 ft | 459 kts | 24° |
| 2026-04-28 18:57 | 48.84967 | 9.72122 | 27681 ft | 461 kts | 25° |
| 2026-04-28 18:57 | 48.87647 | 9.74870 | 27972 ft | 469 kts | 34° |
| 2026-04-28 18:57 | 48.90059 | 9.78253 | 28259 ft | 476 kts | 43° |
| 2026-04-28 18:57 | 48.92192 | 9.82138 | 28534 ft | 480 kts | 47° |
| 2026-04-28 18:58 | 48.94288 | 9.86089 | 28792 ft | 482 kts | 47° |
| 2026-04-28 18:58 | 48.96401 | 9.90060 | 29049 ft | 483 kts | 47° |
| 2026-04-28 18:58 | 48.98524 | 9.94043 | 29301 ft | 484 kts | 47° |
| 2026-04-28 18:58 | 49.00642 | 9.98017 | 29650 ft | 484 kts | 46° |
| 2026-04-28 18:59 | 49.02756 | 10.01996 | 30002 ft | 483 kts | 46° |
| 2026-04-28 18:59 | 49.04866 | 10.05981 | 30320 ft | 483 kts | 46° |
| 2026-04-28 18:59 | 49.06969 | 10.09963 | 30605 ft | 482 kts | 46° |
| 2026-04-28 18:59 | 49.09072 | 10.13948 | 30887 ft | 482 kts | 46° |
| 2026-04-28 19:00 | 49.11174 | 10.17935 | 31103 ft | 482 kts | 46° |
| 2026-04-28 19:00 | 49.13277 | 10.21928 | 31188 ft | 484 kts | 46° |
| 2026-04-28 19:00 | 49.17858 | 10.29361 | 31174 ft | 485 kts | 39° |
| 2026-04-28 19:01 | 49.22601 | 10.36700 | 31165 ft | 486 kts | 39° |
| 2026-04-28 19:01 | 49.27352 | 10.44052 | 31159 ft | 485 kts | 39° |
| 2026-04-28 19:02 | 49.32130 | 10.51345 | 31146 ft | 484 kts | 39° |
| 2026-04-28 19:02 | 49.36893 | 10.58661 | 31152 ft | 485 kts | 40° |
| 2026-04-28 19:03 | 49.41543 | 10.66166 | 31142 ft | 485 kts | 41° |
| 2026-04-28 19:03 | 49.46171 | 10.73690 | 31154 ft | 484 kts | 40° |
| 2026-04-28 19:04 | 49.50825 | 10.81187 | 31180 ft | 483 kts | 40° |
| 2026-04-28 19:04 | 49.54675 | 10.87397 | 31174 ft | 483 kts | 40° |
| 2026-04-28 19:05 | 49.59305 | 10.94893 | 31177 ft | 482 kts | 40° |
| 2026-04-28 19:05 | 49.64662 | 11.03618 | 31186 ft | 481 kts | 41° |
| 2026-04-28 19:06 | 49.68514 | 11.09901 | 31192 ft | 481 kts | 41° |
| 2026-04-28 19:06 | 49.73103 | 11.17395 | 31198 ft | 480 kts | 41° |
| 2026-04-28 19:07 | 49.77682 | 11.24899 | 31208 ft | 479 kts | 41° |
| 2026-04-28 19:07 | 49.82223 | 11.32353 | 31211 ft | 478 kts | 41° |
| 2026-04-28 19:08 | 49.86804 | 11.39905 | 31214 ft | 478 kts | 41° |
| 2026-04-28 19:08 | 49.91311 | 11.47383 | 31215 ft | 477 kts | 41° |
| 2026-04-28 19:09 | 49.93575 | 11.51146 | 31109 ft | 477 kts | 41° |
| 2026-04-28 19:09 | 49.95839 | 11.54909 | 30686 ft | 476 kts | 41° |
| 2026-04-28 19:09 | 49.98117 | 11.58689 | 29340 ft | 483 kts | 42° |
| 2026-04-28 19:09 | 50.00424 | 11.62512 | 28039 ft | 487 kts | 42° |
| 2026-04-28 19:10 | 50.02741 | 11.66369 | 26811 ft | 489 kts | 43° |
| 2026-04-28 19:10 | 50.05038 | 11.70209 | 26161 ft | 479 kts | 43° |
| 2026-04-28 19:10 | 50.07285 | 11.73983 | 25522 ft | 470 kts | 43° |
| 2026-04-28 19:10 | 50.09468 | 11.77661 | 25289 ft | 454 kts | 43° |
| 2026-04-28 19:11 | 50.11569 | 11.81207 | 25222 ft | 435 kts | 43° |
| 2026-04-28 19:11 | 50.13575 | 11.84590 | 25240 ft | 416 kts | 43° |
| 2026-04-28 19:11 | 50.15502 | 11.87840 | 25245 ft | 400 kts | 43° |
| 2026-04-28 19:11 | 50.17331 | 11.90922 | 25243 ft | 384 kts | 43° |
| 2026-04-28 19:12 | 50.19136 | 11.93963 | 24685 ft | 385 kts | 42° |
| 2026-04-28 19:12 | 50.20998 | 11.97080 | 23685 ft | 399 kts | 43° |
| 2026-04-28 19:12 | 50.22921 | 12.00302 | 22495 ft | 413 kts | 43° |
| 2026-04-28 19:12 | 50.24904 | 12.03638 | 21398 ft | 423 kts | 44° |
| 2026-04-28 19:13 | 50.26902 | 12.07019 | 20687 ft | 422 kts | 44° |
| 2026-04-28 19:13 | 50.28882 | 12.10387 | 20082 ft | 418 kts | 44° |
| 2026-04-28 19:13 | 50.30837 | 12.13720 | 19519 ft | 414 kts | 44° |
| 2026-04-28 19:13 | 50.32775 | 12.17029 | 18977 ft | 410 kts | 45° |
| 2026-04-28 19:14 | 50.34633 | 12.20395 | 18440 ft | 408 kts | 52° |
| 2026-04-28 19:14 | 50.36033 | 12.24262 | 17823 ft | 408 kts | 61° |
| 2026-04-28 19:14 | 50.37281 | 12.28239 | 17235 ft | 405 kts | 61° |
| 2026-04-28 19:14 | 50.38535 | 12.32159 | 16676 ft | 401 kts | 60° |
| 2026-04-28 19:15 | 50.39811 | 12.36025 | 16018 ft | 400 kts | 59° |
| 2026-04-28 19:15 | 50.41121 | 12.39873 | 15323 ft | 400 kts | 59° |
| 2026-04-28 19:15 | 50.42469 | 12.43685 | 14759 ft | 397 kts | 57° |
| 2026-04-28 19:15 | 50.43453 | 12.46064 | 14577 ft | 388 kts | 52° |
| 2026-04-28 19:16 | 50.45712 | 12.50384 | 13987 ft | 379 kts | 45° |
| 2026-04-28 19:16 | 50.47485 | 12.53417 | 13424 ft | 375 kts | 44° |
| 2026-04-28 19:16 | 50.49230 | 12.56358 | 12815 ft | 373 kts | 45° |
| 2026-04-28 19:16 | 50.50975 | 12.59365 | 12172 ft | 371 kts | 46° |
| 2026-04-28 19:17 | 50.52653 | 12.62426 | 11568 ft | 369 kts | 49° |
| 2026-04-28 19:17 | 50.54252 | 12.65558 | 11040 ft | 364 kts | 50° |
| 2026-04-28 19:17 | 50.55774 | 12.68652 | 10801 ft | 351 kts | 51° |
| 2026-04-28 19:17 | 50.57230 | 12.71645 | 10606 ft | 338 kts | 51° |
| 2026-04-28 19:18 | 50.58649 | 12.74511 | 10425 ft | 326 kts | 50° |
| 2026-04-28 19:18 | 50.60027 | 12.77254 | 10255 ft | 314 kts | 50° |
| 2026-04-28 19:18 | 50.61354 | 12.79867 | 10274 ft | 297 kts | 49° |
| 2026-04-28 19:18 | 50.62644 | 12.82381 | 10279 ft | 293 kts | 49° |
| 2026-04-28 19:19 | 50.63918 | 12.84847 | 10280 ft | 287 kts | 49° |
| 2026-04-28 19:19 | 50.65162 | 12.87264 | 10273 ft | 283 kts | 49° |
| 2026-04-28 19:19 | 50.66397 | 12.89682 | 10287 ft | 284 kts | 49° |
| 2026-04-28 19:19 | 50.67637 | 12.92128 | 10281 ft | 287 kts | 49° |
| 2026-04-28 19:20 | 50.68881 | 12.94601 | 10265 ft | 288 kts | 50° |
| 2026-04-28 19:20 | 50.70125 | 12.97090 | 10273 ft | 289 kts | 50° |
| 2026-04-28 19:20 | 50.71368 | 12.99580 | 10285 ft | 288 kts | 50° |
| 2026-04-28 19:20 | 50.72603 | 13.02066 | 10293 ft | 288 kts | 50° |
| 2026-04-28 19:21 | 50.73831 | 13.04521 | 10289 ft | 289 kts | 49° |
| 2026-04-28 19:21 | 50.75091 | 13.06991 | 10263 ft | 290 kts | 49° |
| 2026-04-28 19:21 | 50.76375 | 13.09464 | 10247 ft | 288 kts | 48° |
| 2026-04-28 19:21 | 50.77638 | 13.11884 | 9887 ft | 285 kts | 49° |
| 2026-04-28 19:22 | 50.78891 | 13.14301 | 9509 ft | 283 kts | 49° |
| 2026-04-28 19:22 | 50.79730 | 13.15931 | 9264 ft | 282 kts | 49° |
| 2026-04-28 19:22 | 50.81342 | 13.19122 | 8767 ft | 279 kts | 50° |
| 2026-04-28 19:22 | 50.82537 | 13.21539 | 8402 ft | 277 kts | 51° |
| 2026-04-28 19:23 | 50.83687 | 13.23916 | 8030 ft | 266 kts | 51° |
| 2026-04-28 19:23 | 50.84781 | 13.26186 | 7710 ft | 254 kts | 51° |
| 2026-04-28 19:23 | 50.85847 | 13.28371 | 7208 ft | 250 kts | 50° |
| 2026-04-28 19:23 | 50.86924 | 13.30524 | 6642 ft | 249 kts | 50° |
| 2026-04-28 19:24 | 50.88009 | 13.32644 | 6078 ft | 247 kts | 49° |
| 2026-04-28 19:24 | 50.89091 | 13.34734 | 5573 ft | 244 kts | 50° |
| 2026-04-28 19:24 | 50.90134 | 13.36810 | 5321 ft | 239 kts | 51° |
| 2026-04-28 19:24 | 50.91154 | 13.38888 | 4954 ft | 238 kts | 52° |
| 2026-04-28 19:25 | 50.92149 | 13.40963 | 4752 ft | 233 kts | 53° |
| 2026-04-28 19:25 | 50.93129 | 13.43005 | 4643 ft | 233 kts | 52° |
| 2026-04-28 19:25 | 50.94103 | 13.44991 | 4514 ft | 223 kts | 52° |
| 2026-04-28 19:25 | 50.95049 | 13.46899 | 4400 ft | 218 kts | 52° |
| 2026-04-28 19:26 | 50.95971 | 13.48741 | 4286 ft | 208 kts | 51° |
| 2026-04-28 19:26 | 50.96843 | 13.50472 | 4163 ft | 198 kts | 51° |
| 2026-04-28 19:26 | 50.97698 | 13.52166 | 4109 ft | 190 kts | 52° |
| 2026-04-28 19:26 | 50.98509 | 13.53777 | 4025 ft | 189 kts | 52° |
| 2026-04-28 19:27 | 50.99322 | 13.55420 | 4015 ft | 190 kts | 52° |
| 2026-04-28 19:27 | 51.00110 | 13.57025 | 4087 ft | 175 kts | 52° |
| 2026-04-28 19:27 | 51.00811 | 13.58490 | 4022 ft | 160 kts | 54° |
| 2026-04-28 19:27 | 51.01466 | 13.59905 | 3934 ft | 160 kts | 53° |
| 2026-04-28 19:28 | 51.02208 | 13.61268 | 3633 ft | 168 kts | 45° |
| 2026-04-28 19:28 | 51.03070 | 13.62541 | 3301 ft | 169 kts | 43° |
| 2026-04-28 19:28 | 51.03946 | 13.63775 | 3026 ft | 165 kts | 42° |
| 2026-04-28 19:28 | 51.04799 | 13.64957 | 2825 ft | 161 kts | 42° |
| 2026-04-28 19:29 | 51.05609 | 13.66067 | 2614 ft | 146 kts | 41° |
| 2026-04-28 19:29 | 51.06102 | 13.66744 | 2540 ft | 141 kts | 42° |
| 2026-04-28 19:29 | 51.07097 | 13.68104 | 2212 ft | 135 kts | 42° |
| 2026-04-28 19:29 | 51.07785 | 13.69043 | 2001 ft | 129 kts | 43° |
| 2026-04-28 19:30 | 51.08467 | 13.69982 | 1891 ft | 131 kts | 42° |
| 2026-04-28 19:30 | 51.09163 | 13.70934 | 1720 ft | 134 kts | 42° |
| 2026-04-28 19:30 | 51.09871 | 13.71910 | 1471 ft | 136 kts | 41° |
| 2026-04-28 19:30 | 51.10575 | 13.72884 | 1276 ft | 132 kts | 41° |
| 2026-04-28 19:31 | 51.11274 | 13.73836 | 1079 ft | 132 kts | 40° |
| 2026-04-28 19:31 | 51.11964 | 13.74776 | 913 ft | 131 kts | 40° |
| 2026-04-28 19:31 | 51.12649 | 13.75719 | 747 ft | 130 kts | 40° |
| 2026-04-28 19:31 | 51.13279 | 13.76586 | 713 ft | 102 kts | 41° |
| 2026-04-28 19:32 | 51.13688 | 13.77146 | 712 ft | 53 kts | 40° |
| 2026-04-28 19:32 | 51.13858 | 13.77382 | 713 ft | 14 kts | 40° |
| 2026-04-28 19:32 | 51.13898 | 13.77436 | 712 ft | 5 kts | 45° |
| 2026-04-28 19:32 | 51.13898 | 13.77513 | 713 ft | 9 kts | 119° |
| 2026-04-28 19:33 | 51.13857 | 13.77596 | 711 ft | 10 kts | 130° |
| 2026-04-28 19:33 | 51.13810 | 13.77684 | 711 ft | 11 kts | 130° |
| 2026-04-28 19:33 | 51.13802 | 13.77699 | 713 ft | 0 kts | 130° |
| 2026-04-28 19:34 | 51.13801 | 13.77699 | 684 ft | 1 kts | 130° |
| 2026-04-28 19:34 | 51.13764 | 13.77715 | 712 ft | 7 kts | 190° |
| 2026-04-28 19:34 | 51.13727 | 13.77680 | 714 ft | 6 kts | 219° |
| 2026-04-28 19:35 | 51.13699 | 13.77642 | 713 ft | 5 kts | 220° |
| 2026-04-28 19:35 | 51.13675 | 13.77608 | 711 ft | 7 kts | 221° |
| 2026-04-28 19:35 | 51.13621 | 13.77532 | 711 ft | 10 kts | 221° |
| 2026-04-28 19:35 | 51.13572 | 13.77466 | 711 ft | 9 kts | 221° |
| 2026-04-28 19:36 | 51.13499 | 13.77365 | 714 ft | 20 kts | 221° |
| 2026-04-28 19:36 | 51.13392 | 13.77219 | 712 ft | 21 kts | 220° |
| 2026-04-28 19:36 | 51.13281 | 13.77066 | 714 ft | 22 kts | 221° |
| 2026-04-28 19:36 | 51.13161 | 13.76901 | 711 ft | 24 kts | 220° |
| 2026-04-28 19:37 | 51.13037 | 13.76736 | 713 ft | 23 kts | 221° |
| 2026-04-28 19:37 | 51.12974 | 13.76645 | 715 ft | 16 kts | 221° |
| 2026-04-28 19:37 | 51.12874 | 13.76506 | 713 ft | 11 kts | 221° |
| 2026-04-28 19:37 | 51.12820 | 13.76448 | 711 ft | 6 kts | 190° |
| 2026-04-28 19:38 | 51.12790 | 13.76464 | 715 ft | 4 kts | 147° |
| 2026-04-28 19:38 | 51.12765 | 13.76506 | 711 ft | 6 kts | 130° |
| 2026-04-28 19:38 | 51.12735 | 13.76562 | 711 ft | 10 kts | 131° |
| 2026-04-28 19:38 | 51.12700 | 13.76621 | 714 ft | 5 kts | 144° |
| 2026-04-28 19:39 | 51.12674 | 13.76608 | 712 ft | 4 kts | 219° |
| 2026-04-28 19:39 | 51.12654 | 13.76580 | 712 ft | 7 kts | 222° |
| 2026-04-28 19:39 | 51.12637 | 13.76556 | 714 ft | 3 kts | 221° |
| 2026-04-28 19:39 | 51.12627 | 13.76541 | 715 ft | 1 kts | 221° |
| 2026-04-28 19:40 | 51.12626 | 13.76540 | 715 ft | 0 kts | 221° |